logo
App data

Zombie Shooter 2

Zombie Shooter 2 is a unique blend of two game genres - Action and RPG. Every player can choose a character to the liking, get experience to develop skills, earn money and spend it at weapons, medications and useful devices. All of this will be used against thousands of enemies.
Store | Hub | SteamDB | Site
Developer: Sigma Team Inc. Publisher: Sigma Team Inc.
Genre: Action, Indie, RPG
Languages: English, Russian
Tags: Action (57), Zombies (51), RPG (44), Indie (44), Shooter (23), Top-Down Shooter (16), Isometric (15), Gore (13), Singleplayer (11), Top-Down (9)
Category: Single-player
Release date: Sep 23, 2009
Price: $9.99
Old userscore: 78% Owners: 100,000 .. 200,000
Followers: 1,127
Peak concurrent players yesterday: 8
YouTube stats: 16 views and 3 comments for top 50 videos uploaded last week, 11 new videos uploaded yesterday.
Playtime total: 02:51 (average) 04:22 (median)

Steam Spy is still in beta, so expect major bugs.

Owners data:

Access restricted.

This feature is only available to users with special access rights. Sorry.

If you want to proceed, you need to register or log in first and then back Steam Spy on Patreon. Look for Indie or Pro pledge.

Don't forget to use the same email as on Steam Spy!

If you've recently backed Steam Spy on Patreon, please note, that it might take around 15 minutes for your access rights to sync. In most cases you'll need to re-login on Steam Spy too.

Audience in 2 weeks:

Access restricted.

This feature is only available to users with special access rights. Sorry.

If you want to proceed, you need to register or log in first and then back Steam Spy on Patreon. Look for Indie or Pro pledge.

Don't forget to use the same email as on Steam Spy!

If you've recently backed Steam Spy on Patreon, please note, that it might take around 15 minutes for your access rights to sync. In most cases you'll need to re-login on Steam Spy too.

Peak daily concurrent players:

CCU data courtesy of SteamDB. Used with permission.

Hourly concurrent players:

Daily Twitch stats:

Hourly Twitch stats:

Followers over time

Access restricted.

This feature is only available to users with special access rights. Sorry.

If you want to proceed, you need to register or log in first and then back Steam Spy on Patreon. Look for Indie or Pro pledge.

Don't forget to use the same email as on Steam Spy!

If you've recently backed Steam Spy on Patreon, please note, that it might take around 15 minutes for your access rights to sync. In most cases you'll need to re-login on Steam Spy too.

Views for top 50 videos on YouTube for this game:

Games similar to this one:

# Game Release date
Price
Score rank
(Userscore / Metascore)
Owners
Players
Playtime (Median)
1 Deathmatch Classic Jun 1, 2001 $4.99N/A (N/A)5,000,000 .. 10,000,0000%00:00 (00:00)
2 Half-Life Deathmatch: Source May 1, 2006 $9.99N/A (N/A)5,000,000 .. 10,000,0000%00:00 (00:00)
3 QUAKE III: Team Arena Dec 19, 2000 $14.99N/A (N/A/69%)500,000 .. 1,000,0000%00:00 (00:00)
4 HeXen: Deathkings of the Dark Citadel Jan 1, 1996 $4.99N/A (N/A)50,000 .. 100,0000%00:00 (00:00)
5 Heretic: Shadow of the Serpent Riders Aug 3, 2007 $4.99N/A (N/A)100,000 .. 200,0000%00:00 (00:00)
6 Alpha Prime Nov 7, 2007 $4.99N/A (N/A/59%)200,000 .. 500,0000%00:00 (00:00)
7 Call of Duty: United Offensive Sep 15, 2004 $19.99N/A (N/A/87%)100,000 .. 200,0000%00:00 (00:00)
8 Painkiller Overdose Oct 30, 2007 $4.99N/A (N/A/65%)100,000 .. 200,0000%00:00 (00:00)
9 Full Spectrum Warrior Sep 21, 2004 $9.99N/A (N/A/80%)50,000 .. 100,0000%00:00 (00:00)
10 Commandos: Beyond the Call of Duty Apr 7, 1999 $4.99N/A (N/A)500,000 .. 1,000,0000%00:00 (00:00)
11 Two Worlds II Castle Defense Jun 14, 2011 $9.99N/A (N/A)100,000 .. 200,0000%00:00 (00:00)
12 QUAKE Mission Pack 2: Dissolution of Eternity Aug 3, 2007 $2.99N/A (N/A)200,000 .. 500,0000%00:00 (00:00)
13 Grand Theft Auto 2 Oct 25, 1999 N/AN/A (N/A)500,000 .. 1,000,0000%00:00 (00:00)
14 Damnation May 22, 2009 $9.99N/A (N/A/41%)50,000 .. 100,0000%00:00 (00:00)
15 Unreal 2: The Awakening Feb 3, 2003 $14.99N/A (N/A/75%)200,000 .. 500,0000%00:00 (00:00)
16 Tom Clancy's Ghost Recon Desert Siege Jul 15, 2008 $4.99N/A (N/A/82%)50,000 .. 100,0000%00:00 (00:00)
17 Tom Clancy's Ghost Recon Island Thunder Jul 15, 2008 $4.99N/A (N/A/82%)50,000 .. 100,0000%00:00 (00:00)
18 Tom Clancy's Rainbow Six Lockdown May 13, 2008 $9.99N/A (N/A/59%)100,000 .. 200,0000%00:00 (00:00)
19 Rayman Raving Rabbids Mar 27, 2007 $9.99N/A (N/A/58%)50,000 .. 100,0000%00:00 (00:00)
20 Insecticide Part 1 Jun 27, 2008 $2.99N/A (N/A/65%)100,000 .. 200,0000%00:00 (00:00)
21 Helldorado Apr 30, 2009 $9.99N/A (N/A/65%)50,000 .. 100,0000%00:00 (00:00)
22 Bionic Commando Jul 28, 2009 $9.99N/A (N/A/69%)200,000 .. 500,0000%00:00 (00:00)
23 Bionic Commando: Rearmed Aug 14, 2008 $9.99N/A (N/A/86%)200,000 .. 500,0000%00:00 (00:00)
24 Dead Horde Jul 27, 2011 $5.99N/A (N/A)50,000 .. 100,0000%00:00 (00:00)
25 Dark Sector Mar 23, 2009 $9.99N/A (N/A/66%)50,000 .. 100,0000%00:00 (00:00)
26 Zombie Shooter Dec 29, 2007 $4.99N/A (N/A)100,000 .. 200,0000%00:00 (00:00)
27 SEGA Mega Drive and Genesis Classics Jun 1, 2010 $30.34N/A (N/A)1,000,000 .. 2,000,0000%00:00 (00:00)
28 Dwarfs!? May 4, 2011 $9.99N/A (N/A)200,000 .. 500,0000%00:00 (00:00)
29 AquaNox Nov 30, 2001 $4.99N/A (N/A/67%)100,000 .. 200,0000%00:00 (00:00)
30 AquaNox 2: Revelation Aug 19, 2003 $4.99N/A (N/A/59%)50,000 .. 100,0000%00:00 (00:00)
31 Victoria I Complete Aug 20, 2010 $9.99N/A (N/A)100,000 .. 200,0000%00:00 (00:00)
32 NecroVisioN: Lost Company Feb 19, 2010 $6.99N/A (N/A)50,000 .. 100,0000%00:00 (00:00)
33 Theatre of War Apr 19, 2007 $3.99N/A (N/A/66%)100,000 .. 200,0009.09%00:02 (00:00)
34 Real Warfare 1242 Jun 11, 2010 $3.99N/A (N/A)20,000 .. 50,0000%00:00 (00:00)
35 Reign: Conflict of Nations Jun 30, 2010 $3.99N/A (N/A/60%)20,000 .. 50,0000%00:00 (00:00)
36 Future Wars Apr 7, 2010 $4.99N/A (N/A)50,000 .. 100,0000%00:00 (00:00)
37 Wasteland Angel Sep 1, 2011 $9.99N/A (N/A)50,000 .. 100,0000%00:00 (00:00)
38 Robin Hood: The Legend of Sherwood Nov 1, 2002 $7.99N/A (N/A/80%)100,000 .. 200,0000%00:00 (00:00)
39 Plain Sight Apr 5, 2010 $4.99N/A (N/A/76%)50,000 .. 100,0000%00:00 (00:00)
40 Flotilla Mar 29, 2010 $9.99N/A (N/A/72%)100,000 .. 200,0000%00:00 (00:00)
41 ProtoGalaxy Oct 6, 2010 N/AN/A (N/A)50,000 .. 100,0000%00:00 (00:00)
42 Age of Wonders II: The Wizard's Throne Oct 2010 $9.99N/A (N/A/86%)50,000 .. 100,0000%00:00 (00:00)
43 Theatre of War 3: Korea Mar 24, 2011 $6.99N/A (N/A/49%)50,000 .. 100,0000%00:00 (00:00)
44 Archon Classic Nov 2, 2010 $9.99N/A (N/A)20,000 .. 50,0000%00:00 (00:00)
45 Painkiller Redemption Feb 25, 2011 $4.99N/A (N/A/43%)200,000 .. 500,0000%00:00 (00:00)
46 Worms Oct 30, 1995 $7.99N/A (N/A)100,000 .. 200,0000%00:00 (00:00)
47 Hydrophobia: Prophecy May 9, 2011 $4.99N/A (N/A/64%)200,000 .. 500,0000%00:00 (00:00)
48 Xotic Sep 16, 2011 $9.99N/A (N/A/67%)50,000 .. 100,0000%00:00 (00:00)
49 Capsized Apr 29, 2011 $9.99N/A (N/A/80%)200,000 .. 500,0000%00:00 (00:00)
50 Nexuiz May 10, 2012 $9.99N/A (N/A/54%)200,000 .. 500,0000%00:00 (00:00)
51 Garshasp: The Monster Slayer May 9, 2011 $4.99N/A (N/A/49%)50,000 .. 100,0000%00:00 (00:00)
52 Garshasp: Temple of the Dragon Sep 24, 2012 $4.99N/A (N/A)20,000 .. 50,0000%00:00 (00:00)
53 Fowl Space Mar 21, 2012 $4.99N/A (N/A)20,000 .. 50,0000%00:00 (00:00)
54 Data Jammers: FastForward Oct 24, 2011 FreeN/A (N/A)20,000 .. 50,0000%00:00 (00:00)
55 Bunch of Heroes Sep 21, 2011 $4.99N/A (N/A)100,000 .. 200,0000%00:00 (00:00)
56 Cossacks II: Napoleonic Wars Aug 26, 2011 $4.99N/A (N/A/73%)100,000 .. 200,0000%00:00 (00:00)
57 American Conquest Aug 26, 2011 $4.99N/A (N/A/76%)100,000 .. 200,0000%00:00 (00:00)
58 American Conquest: Fight Back Aug 26, 2011 $4.99N/A (N/A/66%)100,000 .. 200,0000%00:00 (00:00)
59 Global Ops: Commando Libya Oct 26, 2011 $4.99N/A (N/A/37%)50,000 .. 100,0000%00:00 (00:00)
60 Revelations 2012 Apr 23, 2012 FreeN/A (N/A)20,000 .. 50,0000%00:00 (00:00)
61 Serious Sam: The Random Encounter Oct 24, 2011 $4.99N/A (N/A/64%)200,000 .. 500,0000%00:00 (00:00)
62 Choplifter HD Jan 11, 2012 N/AN/A (N/A/65%)50,000 .. 100,0000%00:00 (00:00)
63 Real Warfare 2: Northern Crusades Nov 18, 2011 $4.99N/A (N/A)50,000 .. 100,0000%00:00 (00:00)
64 Deep Black: Reloaded Apr 18, 2012 $29.99N/A (N/A/39%)0 .. 20,0000%00:00 (00:00)
65 Crusader Kings Complete Feb 14, 2012 $9.99N/A (N/A/73%)100,000 .. 200,0000%00:00 (00:00)
66 Foreign Legion: Multi Massacre Jul 9, 2012 $4.99N/A (N/A)20,000 .. 50,0000%00:00 (00:00)
67 Painkiller: Recurring Evil Feb 29, 2012 $9.99N/A (N/A/38%)100,000 .. 200,0000%00:00 (00:00)
68 Cubemen Mar 16, 2012 $3.99N/A (N/A/74%)100,000 .. 200,0000%00:00 (00:00)
69 Noitu Love 2: Devolution Apr 23, 2012 $4.99N/A (N/A/80%)50,000 .. 100,0000%00:00 (00:00)
70 Arena Wars 2 Oct 12, 2012 $3.99N/A (N/A)20,000 .. 50,0000%00:00 (00:00)
71 Sacred Citadel Apr 16, 2013 $9.99N/A (N/A/61%)500,000 .. 1,000,0000%00:00 (00:00)
72 Hero Academy Jul 1, 1989 N/AN/A (N/A/75%)100,000 .. 200,0000%00:00 (00:00)
73 Cannon Fodder 3 Aug 6, 2012 $14.99N/A (N/A/49%)20,000 .. 50,0000%00:00 (00:00)
74 Rune Classic Nov 18, 2001 $9.99N/A (N/A)100,000 .. 200,0000%00:00 (00:00)
75 Alien Shooter 2 Conscription May 18, 2012 $9.99N/A (N/A)100,000 .. 200,0000%00:00 (00:00)
76 Galactic Civilizations I: Ultimate Edition Aug 14, 2012 $9.99N/A (N/A/83%)200,000 .. 500,0000%00:00 (00:00)
77 Intrusion 2 Sep 11, 2012 $9.99N/A (N/A/80%)200,000 .. 500,0000%00:00 (00:00)
78 Karateka Dec 3, 2012 $3.99N/A (N/A/48%)50,000 .. 100,0000%00:00 (00:00)
79 Dogfight 1942 Sep 21, 2012 $9.99N/A (N/A)100,000 .. 200,0000%00:00 (00:00)
80 Planets Under Attack Sep 27, 2012 $9.99N/A (N/A)200,000 .. 500,0000%00:00 (00:00)
81 iBomber Attack Nov 1, 2012 $5.99N/A (N/A)20,000 .. 50,0000%00:00 (00:00)
82 Droid Assault Jan 9, 2013 $9.99N/A (N/A)50,000 .. 100,0000%00:00 (00:00)
83 NiGHTS Into Dreams Dec 17, 2012 $7.99N/A (N/A)100,000 .. 200,0000%00:00 (00:00)
84 Legacy of Kain: Defiance Dec 17, 2003 $6.99N/A (N/A/70%)200,000 .. 500,0000%00:00 (00:00)
85 Legacy of Kain: Soul Reaver 2 Dec 6, 2012 $6.99N/A (N/A/77%)200,000 .. 500,0000%00:00 (00:00)
86 Tomb Raider V: Chronicles Nov 28, 2012 $6.99N/A (N/A)200,000 .. 500,0000%00:00 (00:00)
87 Tomb Raider VI: The Angel of Darkness Nov 28, 2012 $6.99N/A (N/A)200,000 .. 500,0000%00:00 (00:00)
88 POSTAL Nov 14, 1997 $27.96N/A (N/A/56%)2,000,000 .. 5,000,0000%00:00 (00:00)
89 Thunder Wolves May 15, 2013 $9.99N/A (N/A/69%)50,000 .. 100,0000%00:00 (00:00)
90 Another World – 20th Anniversary Edition Apr 4, 2013 $9.99N/A (N/A)200,000 .. 500,0000%00:00 (00:00)
91 Strike Suit Infinity Apr 30, 2013 $6.99N/A (N/A/66%)100,000 .. 200,0000%00:00 (00:00)
92 UFO: Afterlight Jan 6, 2014 $6.99N/A (N/A/71%)200,000 .. 500,0000%00:00 (00:00)
93 The Apogee Throwback Pack Jul 1, 2013 $9.99N/A (N/A)200,000 .. 500,0000%00:00 (00:00)
94 Vector Thrust Jul 2, 2015 $24.99N/A (N/A/57%)200,000 .. 500,0000%00:00 (00:00)
95 Blood Omen 2: Legacy of Kain Mar 29, 2002 $6.99N/A (N/A)200,000 .. 500,0000%00:00 (00:00)
96 Daikatana May 23, 2000 $6.99N/A (N/A)200,000 .. 500,0000%00:00 (00:00)
97 Urban Chaos Nov 30, 1999 $6.99N/A (N/A)20,000 .. 50,0000%00:00 (00:00)
98 Strike Vector Jan 28, 2014 N/AN/A (N/A/73%)100,000 .. 200,0000%00:00 (00:00)
99 Huntsman: The Orphanage (Halloween Edition) Sep 13, 2013 $8.99N/A (N/A)50,000 .. 100,0000%00:00 (00:00)
100 Portal 2 Sixense Perceptual Pack Sep 20, 2013 N/AN/A (N/A)1,000,000 .. 2,000,0000%00:00 (00:00)
101 Ancient Space Sep 23, 2014 $19.99N/A (N/A)50,000 .. 100,0000%00:00 (00:00)
102 Marlow Briggs and the Mask of Death Sep 20, 2013 $4.99N/A (N/A)50,000 .. 100,0000%00:00 (00:00)
103 Shadow Man Mar 9, 1999 N/AN/A (N/A)20,000 .. 50,0000%00:00 (00:00)
104 Earth 2140 Nov 15, 2013 $4.99N/A (N/A)200,000 .. 500,0000%00:00 (00:00)
105 Earth 2150 Trilogy Nov 1, 2013 $6.99N/A (N/A/78%)100,000 .. 200,0000%00:00 (00:00)
106 World War III: Black Gold Sep 27, 2013 $4.99N/A (N/A/71%)200,000 .. 500,0000%00:00 (00:00)
107 World War II: Panzer Claws Sep 27, 2013 $4.99N/A (N/A/61%)100,000 .. 200,0000%00:00 (00:00)
108 Ring Runner: Flight of the Sages Jul 9, 2013 $4.99N/A (N/A/75%)100,000 .. 200,0000%00:00 (00:00)
109 Alone in the Dark Oct 29, 2013 $9.99N/A (N/A/55%)20,000 .. 50,0000%00:00 (00:00)
110 Heli Heroes Jan 30, 2002 $4.99N/A (N/A)200,000 .. 500,0000%00:00 (00:00)
111 Void Destroyer Jan 20, 2015 $9.99N/A (N/A)50,000 .. 100,0000%00:00 (00:00)
112 Marc Eckō's Getting Up: Contents Under Pressure Dec 13, 2013 $14.99N/A (N/A/69%)50,000 .. 100,0000%00:00 (00:00)
113 Desperados: Wanted Dead or Alive Nov 20, 2013 $4.99N/A (N/A/78%)100,000 .. 200,0000%00:00 (00:00)
114 MURI Dec 6, 2013 $4.99N/A (N/A)20,000 .. 50,0000%00:00 (00:00)
115 Hyper Fighters Jun 14, 2011 $2.99N/A (N/A)50,000 .. 100,0000%00:00 (00:00)
116 Etherlords Nov 12, 2001 $4.99N/A (N/A/77%)50,000 .. 100,0000%00:00 (00:00)
117 Sniper Art of Victory Oct 16, 2008 $2.99N/A (N/A)200,000 .. 500,0002.78%00:01 (00:00)
118 Praetorians Apr 11, 2014 $4.99N/A (N/A/78%)100,000 .. 200,0000%00:00 (00:00)
119 GIGANTIC ARMY Mar 6, 2014 $5.99N/A (N/A)50,000 .. 100,0000%00:00 (00:00)
120 Eterium Apr 15, 2014 $4.99N/A (N/A)100,000 .. 200,0000%00:00 (00:00)
121 BloodRayne Betrayal Apr 30, 2014 $9.99N/A (N/A)100,000 .. 200,0000%00:00 (00:00)
122 Desert Thunder Nov 19, 2003 $2.99N/A (N/A)20,000 .. 50,0000%00:00 (00:00)
123 Marine Sharpshooter II: Jungle Warfare Apr 3, 2014 $2.99N/A (N/A/52%)100,000 .. 200,0000%00:00 (00:00)
124 CT Special Forces: Fire for Effect Mar 24, 2005 $2.99N/A (N/A)20,000 .. 50,0000%00:00 (00:00)
125 Litil Divil Jan 1, 1993 $2.99N/A (N/A)20,000 .. 50,0000%00:00 (00:00)
126 ALLTYNEX Second Dec 11, 2014 $7.99N/A (N/A)20,000 .. 50,0000%00:00 (00:00)
127 Battle Academy Aug 4, 2010 $14.99N/A (N/A)20,000 .. 50,0000%00:00 (00:00)
128 Chaos Domain May 1, 2014 $4.99N/A (N/A)200,000 .. 500,0000%00:00 (00:00)
129 El Matador Sep 25, 2006 $3.99N/A (N/A/54%)20,000 .. 50,0000%00:00 (00:00)
130 UFO: Aftershock Oct 21, 2005 $3.99N/A (N/A)50,000 .. 100,0000%00:00 (00:00)
131 Evolution RTS Apr 4, 2014 N/AN/A (N/A)100,000 .. 200,0000%00:00 (00:00)
132 UFO: Aftermath Oct 3, 2003 $3.99N/A (N/A)100,000 .. 200,0000%00:00 (00:00)
133 Realms of the Haunting Dec 31, 1996 $2.99N/A (N/A)200,000 .. 500,0000%00:00 (00:00)
134 Dark Raid Jun 3, 2014 $3.99N/A (N/A)20,000 .. 50,0000%00:00 (00:00)
135 Knight Squad Nov 16, 2015 $14.99N/A (N/A)20,000 .. 50,0000%00:00 (00:00)
136 Putt-Putt Saves The Zoo Dec 31, 1995 $6.99N/A (N/A)20,000 .. 50,0000%00:00 (00:00)
137 Haegemonia: Legions of Iron May 1, 2002 $4.99N/A (N/A)0 .. 20,0000%00:00 (00:00)
138 Haegemonia: The Solon Heritage May 1, 2014 $4.99N/A (N/A)20,000 .. 50,0000%00:00 (00:00)
139 Iron Storm Oct 25, 2002 $2.99N/A (N/A/69%)50,000 .. 100,0000%00:00 (00:00)
140 GALAK-Z Oct 29, 2015 $19.99N/A (N/A/78%)100,000 .. 200,0000%00:00 (00:00)
141 Chernobyl Commando Mar 8, 2013 N/AN/A (N/A)50,000 .. 100,0000%00:00 (00:00)
142 Manhunter Jan 29, 2013 N/AN/A (N/A)100,000 .. 200,0000%00:00 (00:00)
143 Tex Murphy: Mean Streets Jan 1, 1989 $5.99N/A (N/A)50,000 .. 100,0000%00:00 (00:00)
144 Overlord: Fellowship of Evil Oct 19, 2015 $9.99N/A (N/A)50,000 .. 100,0000%00:00 (00:00)
145 Platypus Jun 2, 2004 $3.99N/A (N/A)50,000 .. 100,0000%00:00 (00:00)
146 War in a Box: Paper Tanks Jul 4, 2014 $4.99N/A (N/A)50,000 .. 100,0000%00:00 (00:00)
147 Jet Gunner Aug 4, 2014 $0.99N/A (N/A)200,000 .. 500,0000%00:00 (00:00)
148 Space Hack Nov 15, 2005 $4.99N/A (N/A/63%)100,000 .. 200,0000%00:00 (00:00)
149 Kings of Kung Fu Jun 25, 2015 $9.99N/A (N/A)50,000 .. 100,0000%00:00 (00:00)
150 Attractio Jan 18, 2016 N/AN/A (N/A)20,000 .. 50,0000%00:00 (00:00)
151 Reprisal Universe Sep 15, 2014 $6.99N/A (N/A)20,000 .. 50,0000%00:00 (00:00)
152 Gemini: Heroes Reborn Jan 18, 2016 $2.99N/A (N/A/54%)50,000 .. 100,0000%00:00 (00:00)
153 Redline Jan 1, 1999 $6.99N/A (N/A)20,000 .. 50,0000%00:00 (00:00)
154 NAM Jul 31, 1998 $6.99N/A (N/A)100,000 .. 200,0000%00:00 (00:00)
155 Neocolonialism Nov 25, 2014 $2.99N/A (N/A)0 .. 20,0000%00:00 (00:00)
156 Down To One Jan 7, 2016 $0.99N/A (N/A)100,000 .. 200,0000%00:00 (00:00)
157 Insanity's Blade Dec 5, 2014 $5.99N/A (N/A)20,000 .. 50,0000%00:00 (00:00)
158 Dead Island Retro Revenge May 31, 2016 $4.99N/A (N/A)100,000 .. 200,0000%00:00 (00:00)
159 BiT Evolution Jun 9, 2015 $9.99N/A (N/A)50,000 .. 100,0000%00:00 (00:00)
160 Total Extreme Wrestling 2010 Mar 19, 2015 $14.99N/A (N/A)0 .. 20,0000%00:00 (00:00)
161 Bierzerkers Feb 25, 2016 $4.99N/A (N/A)100,000 .. 200,0000%00:00 (00:00)
162 Fly in the House Mar 6, 2015 $9.99N/A (N/A)20,000 .. 50,0000%00:00 (00:00)
163 On My Own Feb 26, 2016 $7.99N/A (N/A)20,000 .. 50,0000%00:00 (00:00)
164 Rad Rodgers: World One Dec 1, 2016 $19.99N/A (N/A/72%)0 .. 20,0000%00:00 (00:00)
165 STAR WARS - X-Wing Special Edition Jan 1, 1994 $9.99N/A (N/A)100,000 .. 200,0000%00:00 (00:00)
166 Stalingrad Apr 5, 2005 $4.99N/A (N/A)20,000 .. 50,0000%00:00 (00:00)
167 ZombieRun Jun 3, 2015 $2.99N/A (N/A)0 .. 20,0000%00:00 (00:00)
168 World War I Jun 17, 2005 $4.99N/A (N/A)20,000 .. 50,0000%00:00 (00:00)
169 STAR WARS - X-Wing Alliance Mar 28, 1999 $9.99N/A (N/A)50,000 .. 100,0000%00:00 (00:00)
170 STAR WARS X-Wing vs TIE Fighter - Balance of Power Campaigns Apr 17, 1997 $9.99N/A (N/A)100,000 .. 200,0000%00:00 (00:00)
171 Spermination Apr 29, 2015 $2.99N/A (N/A)20,000 .. 50,0000%00:00 (00:00)
172 Wyrmsun May 22, 2015 FreeN/A (N/A)50,000 .. 100,0000%00:00 (00:00)
173 Grey Cubes May 15, 2015 N/AN/A (N/A)20,000 .. 50,0000%00:00 (00:00)
174 Air Brawl Jun 2, 2015 FreeN/A (N/A)100,000 .. 200,0000%00:00 (00:00)
175 Sayonara Umihara Kawase Oct 6, 2015 $14.99N/A (N/A)0 .. 20,0000%00:00 (00:00)
176 Cruel Arena Aug 18, 2015 $0.99N/A (N/A)200,000 .. 500,0000%00:00 (00:00)
177 Glass Wing Jun 24, 2015 FreeN/A (N/A)50,000 .. 100,0000%00:00 (00:00)
178 The Ship: Remasted Oct 31, 2016 $9.99N/A (N/A)50,000 .. 100,0000%00:00 (00:00)
179 Zanzarah: The Hidden Portal Aug 20, 2015 $0.79N/A (N/A)50,000 .. 100,0000%00:00 (00:00)
180 Call of Tomsk-7 Aug 10, 2015 $0.99N/A (N/A)20,000 .. 50,0000%00:00 (00:00)
181 ARCADE GAME SERIES: PAC-MAN Apr 19, 2016 $1.99N/A (N/A)100,000 .. 200,0000%00:00 (00:00)
182 Spheroid Aug 29, 2015 N/AN/A (N/A)20,000 .. 50,0000%00:00 (00:00)
183 Zenohell Oct 15, 2015 $9.99N/A (N/A)20,000 .. 50,0000%00:00 (00:00)
184 ARCADE GAME SERIES: DIG DUG Apr 19, 2016 $1.99N/A (N/A)100,000 .. 200,0000%00:00 (00:00)
185 ARCADE GAME SERIES: GALAGA Apr 19, 2016 $1.99N/A (N/A)100,000 .. 200,0000%00:00 (00:00)
186 Black & White Bushido Oct 2, 2015 $12.99N/A (N/A)20,000 .. 50,0000%00:00 (00:00)
187 Zero Reflex : Black Eye Edition Nov 5, 2015 $3.99N/A (N/A)20,000 .. 50,0000%00:00 (00:00)
188 Guardians of Orion (Phase 1) Dec 1, 2015 $0.99N/A (N/A)200,000 .. 500,0000%00:00 (00:00)
189 Master of Orion 3 Aug 25, 2016 $9.99N/A (N/A/64%)200,000 .. 500,0000%00:00 (00:00)
190 Codename: Panzers, Phase One Jun 16, 2004 $14.99N/A (N/A/81%)20,000 .. 50,0000%00:00 (00:00)
191 Left Alone Apr 28, 2016 $6.99N/A (N/A)20,000 .. 50,0000%00:00 (00:00)
192 Emmerholt: Prologue Feb 14, 2017 FreeN/A (N/A)20,000 .. 50,0000%00:00 (00:00)
193 Dinocide Jan 21, 2016 $9.99N/A (N/A/51%)20,000 .. 50,0000%00:00 (00:00)
194 Cosmic Trip May 24, 2017 $19.99N/A (N/A)20,000 .. 50,0000%00:00 (00:00)
195 Resilience Wave Survival Dec 23, 2015 $4.99N/A (N/A)0 .. 20,0000%00:00 (00:00)
196 LASTFIGHT May 19, 2016 $14.99N/A (N/A)0 .. 20,0000%00:00 (00:00)
197 Crown and Council Jan 27, 2017 FreeN/A (N/A)200,000 .. 500,0000%00:00 (00:00)
198 Skautfold: Shrouded in Sanity May 27, 2016 $4.99N/A (N/A)20,000 .. 50,0000%00:00 (00:00)
199 Virtual Rogue Apr 8, 2016 N/AN/A (N/A)0 .. 20,0000%00:00 (00:00)
200 Overload Playable Teaser 3.0 Mar 7, 2016 FreeN/A (N/A)100,000 .. 200,0000%00:00 (00:00)
201 The Secret of Pineview Forest Oct 31, 2016 FreeN/A (N/A)20,000 .. 50,0000%00:00 (00:00)
202 STAR WARS: Rebel Assault I + II Oct 16, 1993 $9.99N/A (N/A)20,000 .. 50,0000%00:00 (00:00)
203 Grizzly Valley Apr 23, 2016 $4.99N/A (N/A)100,000 .. 200,0000%00:00 (00:00)
204 THE LAST BLADE Aug 31, 2016 $9.99N/A (N/A)20,000 .. 50,0000%00:00 (00:00)
205 Zenodyne R May 29, 2016 $9.99N/A (N/A)0 .. 20,0000%00:00 (00:00)
206 Versus: Battle of the Gladiator Aug 26, 2016 N/AN/A (N/A)100,000 .. 200,0000%00:00 (00:00)
207 VERSUS SQUAD Oct 26, 2016 $7.99N/A (N/A)50,000 .. 100,0000%00:00 (00:00)
208 Battle Dome Jun 8, 2017 $1.99N/A (N/A)50,000 .. 100,0000%00:00 (00:00)
209 Cthulhu Realms Jul 1, 2016 N/AN/A (N/A)50,000 .. 100,0000%00:00 (00:00)
210 Blight of the Immortals Oct 25, 2016 FreeN/A (N/A)0 .. 20,0000%00:00 (00:00)
211 VRMultigames Jul 25, 2016 N/AN/A (N/A)20,000 .. 50,0000%00:00 (00:00)
212 Acan's Call: Act 1 Aug 11, 2016 FreeN/A (N/A)100,000 .. 200,0000%00:00 (00:00)
213 Scrap Garden - The Day Before Oct 7, 2016 FreeN/A (N/A)200,000 .. 500,0000%00:00 (00:00)
214 THOTH Oct 7, 2016 $4.99N/A (N/A)50,000 .. 100,0000%00:00 (00:00)
215 Unbox: Newbie's Adventure Sep 5, 2016 $19.99N/A (N/A/68%)50,000 .. 100,0000%00:00 (00:00)
216 What The Box? Sep 12, 2016 $4.99N/A (N/A)50,000 .. 100,0000%00:00 (00:00)
217 Lazerbait Oct 14, 2016 FreeN/A (N/A)20,000 .. 50,0000%00:00 (00:00)
218 Pixel-Warfare: Pro Sep 20, 2016 $0.99N/A (N/A)50,000 .. 100,0000%00:00 (00:00)
219 Death Dojo Nov 8, 2016 FreeN/A (N/A)0 .. 20,0000%00:00 (00:00)
220 Children of Orc Dec 20, 2016 FreeN/A (N/A)20,000 .. 50,0000%00:00 (00:00)
221 What The Heck, Dude? Nov 3, 2016 $0.99N/A (N/A)100,000 .. 200,0000%00:00 (00:00)
222 Fastigium Dec 17, 2016 FreeN/A (N/A)20,000 .. 50,0000%00:00 (00:00)
223 Deus Ex: Breach Jan 24, 2017 FreeN/A (N/A)50,000 .. 100,0000%00:00 (00:00)
224 STAR WARS SHADOWS OF THE EMPIRE Sep 17, 1997 $5.99N/A (N/A)20,000 .. 50,0000%00:00 (00:00)
225 Steam 360 Video Player May 10, 2017 FreeN/A (N/A)100,000 .. 200,0000%00:00 (00:00)

Tags over time:

Access restricted.

This feature is only available to users with special access rights. Sorry.

If you want to proceed, you need to register or log in first and then back Steam Spy on Patreon. Look for Indie or Pro pledge.

Don't forget to use the same email as on Steam Spy!

If you've recently backed Steam Spy on Patreon, please note, that it might take around 15 minutes for your access rights to sync. In most cases you'll need to re-login on Steam Spy too.

Owners of this game also own:

Access restricted.

This feature is only available to users with special access rights. Sorry.

If you want to proceed, you need to register or log in first and then back Steam Spy on Patreon. Look for Indie or Pro pledge.

Don't forget to use the same email as on Steam Spy!

If you've recently backed Steam Spy on Patreon, please note, that it might take around 15 minutes for your access rights to sync. In most cases you'll need to re-login on Steam Spy too.

Playtime distribution:

Access restricted.

This feature is only available to users with special access rights. Sorry.

If you want to proceed, you need to register or log in first and then back Steam Spy on Patreon. Look for Indie or Pro pledge.

Don't forget to use the same email as on Steam Spy!

If you've recently backed Steam Spy on Patreon, please note, that it might take around 15 minutes for your access rights to sync. In most cases you'll need to re-login on Steam Spy too.

Playtime (2 weeks):

Access restricted.

This feature is only available to users with special access rights. Sorry.

If you want to proceed, you need to register or log in first and then back Steam Spy on Patreon. Look for Indie or Pro pledge.

Don't forget to use the same email as on Steam Spy!

If you've recently backed Steam Spy on Patreon, please note, that it might take around 15 minutes for your access rights to sync. In most cases you'll need to re-login on Steam Spy too.

User reviews:

Login required.

Please register or log in to see this information.